sensor_id;sensor_type;location;lat;lon;timestamp;pressure;altitude;pressure_sealevel;temperature
82297;BMP280;71899;51.992;8.648;2023-08-17T00:00:41;100536.19;;;18.59
82297;BMP280;71899;51.992;8.648;2023-08-17T00:03:06;100539.13;;;18.66
82297;BMP280;71899;51.992;8.648;2023-08-17T00:05:31;100546.09;;;18.48
82297;BMP280;71899;51.992;8.648;2023-08-17T00:08:00;100542.06;;;18.72
82297;BMP280;71899;51.992;8.648;2023-08-17T00:10:26;100547.22;;;18.64
82297;BMP280;71899;51.992;8.648;2023-08-17T00:12:51;100544.56;;;18.93
82297;BMP280;71899;51.992;8.648;2023-08-17T00:15:16;100538.16;;;18.86
82297;BMP280;71899;51.992;8.648;2023-08-17T00:17:42;100537.88;;;18.70
82297;BMP280;71899;51.992;8.648;2023-08-17T00:20:07;100544.56;;;18.64
82297;BMP280;71899;51.992;8.648;2023-08-17T00:22:35;100538.44;;;18.54
82297;BMP280;71899;51.992;8.648;2023-08-17T00:25:00;100539.97;;;18.86
82297;BMP280;71899;51.992;8.648;2023-08-17T00:27:26;100533.16;;;18.64
82297;BMP280;71899;51.992;8.648;2023-08-17T00:29:52;100532.66;;;18.30
82297;BMP280;71899;51.992;8.648;2023-08-17T00:32:17;100538.50;;;18.24
82297;BMP280;71899;51.992;8.648;2023-08-17T00:34:42;100529.75;;;18.43
82297;BMP280;71899;51.992;8.648;2023-08-17T00:37:08;100536.88;;;18.52
82297;BMP280;71899;51.992;8.648;2023-08-17T00:39:33;100537.94;;;18.30
82297;BMP280;71899;51.992;8.648;2023-08-17T00:41:59;100539.22;;;18.26
82297;BMP280;71899;51.992;8.648;2023-08-17T00:44:24;100538.22;;;18.17
82297;BMP280;71899;51.992;8.648;2023-08-17T00:46:49;100532.63;;;18.01
82297;BMP280;71899;51.992;8.648;2023-08-17T00:49:15;100535.41;;;18.00
82297;BMP280;71899;51.992;8.648;2023-08-17T00:51:41;100533.50;;;18.21
82297;BMP280;71899;51.992;8.648;2023-08-17T00:54:06;100532.31;;;17.95
82297;BMP280;71899;51.992;8.648;2023-08-17T00:56:32;100526.88;;;17.87
82297;BMP280;71899;51.992;8.648;2023-08-17T00:58:57;100524.09;;;17.88
82297;BMP280;71899;51.992;8.648;2023-08-17T01:01:23;100517.84;;;17.89
82297;BMP280;71899;51.992;8.648;2023-08-17T01:03:49;100519.94;;;17.95
82297;BMP280;71899;51.992;8.648;2023-08-17T01:06:15;100525.09;;;17.97
82297;BMP280;71899;51.992;8.648;2023-08-17T01:08:42;100527.28;;;17.92
82297;BMP280;71899;51.992;8.648;2023-08-17T01:16:27;100529.03;;;18.21
82297;BMP280;71899;51.992;8.648;2023-08-17T01:18:54;100517.16;;;17.97
82297;BMP280;71899;51.992;8.648;2023-08-17T01:21:24;100517.91;;;18.18
82297;BMP280;71899;51.992;8.648;2023-08-17T01:23:50;100531.00;;;18.48
82297;BMP280;71899;51.992;8.648;2023-08-17T01:26:16;100537.75;;;18.71
82297;BMP280;71899;51.992;8.648;2023-08-17T01:28:45;100520.81;;;18.34
82297;BMP280;71899;51.992;8.648;2023-08-17T01:31:20;100524.19;;;18.36
82297;BMP280;71899;51.992;8.648;2023-08-17T01:33:50;100519.31;;;18.31
82297;BMP280;71899;51.992;8.648;2023-08-17T01:36:20;100523.63;;;18.42
82297;BMP280;71899;51.992;8.648;2023-08-17T01:38:50;100519.06;;;18.63
82297;BMP280;71899;51.992;8.648;2023-08-17T01:41:16;100518.91;;;18.36
82297;BMP280;71899;51.992;8.648;2023-08-17T01:43:43;100508.31;;;18.36
82297;BMP280;71899;51.992;8.648;2023-08-17T01:46:13;100518.38;;;18.71
82297;BMP280;71899;51.992;8.648;2023-08-17T01:48:40;100517.94;;;18.75
82297;BMP280;71899;51.992;8.648;2023-08-17T01:51:05;100519.16;;;18.91
82297;BMP280;71899;51.992;8.648;2023-08-17T01:53:31;100523.50;;;18.92
82297;BMP280;71899;51.992;8.648;2023-08-17T01:55:56;100527.53;;;18.96
82297;BMP280;71899;51.992;8.648;2023-08-17T01:58:22;100526.69;;;19.05
82297;BMP280;71899;51.992;8.648;2023-08-17T02:00:48;100532.78;;;19.24
82297;BMP280;71899;51.992;8.648;2023-08-17T02:03:13;100528.31;;;19.25
82297;BMP280;71899;51.992;8.648;2023-08-17T02:05:38;100535.81;;;18.54
82297;BMP280;71899;51.992;8.648;2023-08-17T02:08:04;100531.75;;;18.60
82297;BMP280;71899;51.992;8.648;2023-08-17T02:10:30;100535.91;;;18.81
82297;BMP280;71899;51.992;8.648;2023-08-17T02:12:55;100530.78;;;18.51
82297;BMP280;71899;51.992;8.648;2023-08-17T02:15:20;100537.72;;;18.52
82297;BMP280;71899;51.992;8.648;2023-08-17T02:17:46;100545.41;;;18.65
82297;BMP280;71899;51.992;8.648;2023-08-17T02:20:11;100543.19;;;18.79
82297;BMP280;71899;51.992;8.648;2023-08-17T02:22:36;100534.06;;;18.34
82297;BMP280;71899;51.992;8.648;2023-08-17T02:25:02;100532.13;;;18.36
82297;BMP280;71899;51.992;8.648;2023-08-17T02:27:27;100526.84;;;18.46
82297;BMP280;71899;51.992;8.648;2023-08-17T02:29:56;100526.81;;;18.26
82297;BMP280;71899;51.992;8.648;2023-08-17T02:32:22;100523.81;;;18.60
82297;BMP280;71899;51.992;8.648;2023-08-17T02:34:47;100527.84;;;18.54
82297;BMP280;71899;51.992;8.648;2023-08-17T02:37:12;100523.78;;;18.41
82297;BMP280;71899;51.992;8.648;2023-08-17T02:39:37;100520.19;;;18.51
82297;BMP280;71899;51.992;8.648;2023-08-17T02:42:03;100522.09;;;18.40
82297;BMP280;71899;51.992;8.648;2023-08-17T02:44:30;100520.09;;;18.03
82297;BMP280;71899;51.992;8.648;2023-08-17T02:46:55;100515.75;;;18.02
82297;BMP280;71899;51.992;8.648;2023-08-17T02:49:20;100509.50;;;17.94
82297;BMP280;71899;51.992;8.648;2023-08-17T02:51:46;100507.94;;;17.91
82297;BMP280;71899;51.992;8.648;2023-08-17T02:54:11;100499.94;;;18.21
82297;BMP280;71899;51.992;8.648;2023-08-17T02:56:36;100501.22;;;18.37
82297;BMP280;71899;51.992;8.648;2023-08-17T02:59:02;100503.00;;;18.36
82297;BMP280;71899;51.992;8.648;2023-08-17T03:01:27;100509.72;;;18.40
82297;BMP280;71899;51.992;8.648;2023-08-17T03:03:54;100508.59;;;18.43
82297;BMP280;71899;51.992;8.648;2023-08-17T03:06:19;100510.00;;;18.56
82297;BMP280;71899;51.992;8.648;2023-08-17T03:08:44;100507.91;;;18.41
82297;BMP280;71899;51.992;8.648;2023-08-17T03:11:10;100504.03;;;18.54
82297;BMP280;71899;51.992;8.648;2023-08-17T03:13:35;100500.75;;;18.41
82297;BMP280;71899;51.992;8.648;2023-08-17T03:16:01;100499.81;;;18.42
82297;BMP280;71899;51.992;8.648;2023-08-17T03:18:26;100499.38;;;18.47
82297;BMP280;71899;51.992;8.648;2023-08-17T03:20:51;100503.53;;;18.30
82297;BMP280;71899;51.992;8.648;2023-08-17T03:23:17;100508.88;;;18.40
82297;BMP280;71899;51.992;8.648;2023-08-17T03:25:43;100498.53;;;18.27
82297;BMP280;71899;51.992;8.648;2023-08-17T03:28:11;100504.41;;;18.40
82297;BMP280;71899;51.992;8.648;2023-08-17T03:30:36;100497.00;;;18.34
82297;BMP280;71899;51.992;8.648;2023-08-17T03:33:02;100490.88;;;18.33
82297;BMP280;71899;51.992;8.648;2023-08-17T03:35:29;100493.94;;;18.39
82297;BMP280;71899;51.992;8.648;2023-08-17T03:37:55;100493.94;;;18.48
82297;BMP280;71899;51.992;8.648;2023-08-17T03:40:20;100491.31;;;18.67
82297;BMP280;71899;51.992;8.648;2023-08-17T03:42:45;100490.06;;;18.52
82297;BMP280;71899;51.992;8.648;2023-08-17T03:45:11;100483.34;;;18.48
82297;BMP280;71899;51.992;8.648;2023-08-17T03:47:37;100475.81;;;18.34
82297;BMP280;71899;51.992;8.648;2023-08-17T03:50:02;100477.91;;;18.21
82297;BMP280;71899;51.992;8.648;2023-08-17T03:52:28;100477.88;;;18.02
82297;BMP280;71899;51.992;8.648;2023-08-17T03:54:54;100476.94;;;18.22
82297;BMP280;71899;51.992;8.648;2023-08-17T03:57:19;100470.66;;;18.04
82297;BMP280;71899;51.992;8.648;2023-08-17T03:59:44;100476.09;;;18.02
82297;BMP280;71899;51.992;8.648;2023-08-17T04:02:10;100474.03;;;18.15
82297;BMP280;71899;51.992;8.648;2023-08-17T04:04:36;100474.72;;;18.08
82297;BMP280;71899;51.992;8.648;2023-08-17T04:07:02;100470.38;;;17.97
82297;BMP280;71899;51.992;8.648;2023-08-17T04:09:28;100468.25;;;17.91
82297;BMP280;71899;51.992;8.648;2023-08-17T04:11:53;100475.63;;;17.78
82297;BMP280;71899;51.992;8.648;2023-08-17T04:14:19;100472.81;;;17.70
82297;BMP280;71899;51.992;8.648;2023-08-17T04:16:46;100486.75;;;17.81
82297;BMP280;71899;51.992;8.648;2023-08-17T04:19:11;100484.38;;;17.69
82297;BMP280;71899;51.992;8.648;2023-08-17T04:21:37;100477.03;;;17.82
82297;BMP280;71899;51.992;8.648;2023-08-17T04:24:02;100475.13;;;18.13
82297;BMP280;71899;51.992;8.648;2023-08-17T04:26:28;100478.22;;;18.47
82297;BMP280;71899;51.992;8.648;2023-08-17T04:28:54;100483.75;;;18.34
82297;BMP280;71899;51.992;8.648;2023-08-17T04:31:19;100492.00;;;18.50
82297;BMP280;71899;51.992;8.648;2023-08-17T04:33:51;100499.53;;;18.26
82297;BMP280;71899;51.992;8.648;2023-08-17T04:36:17;100499.94;;;18.12
82297;BMP280;71899;51.992;8.648;2023-08-17T04:38:42;100502.81;;;17.99
82297;BMP280;71899;51.992;8.648;2023-08-17T04:41:07;100500.34;;;18.07
82297;BMP280;71899;51.992;8.648;2023-08-17T04:43:32;100505.34;;;18.01
82297;BMP280;71899;51.992;8.648;2023-08-17T04:45:58;100500.50;;;18.25
82297;BMP280;71899;51.992;8.648;2023-08-17T04:48:23;100502.72;;;18.39
82297;BMP280;71899;51.992;8.648;2023-08-17T04:50:49;100501.63;;;18.32
82297;BMP280;71899;51.992;8.648;2023-08-17T04:53:15;100497.72;;;18.36
82297;BMP280;71899;51.992;8.648;2023-08-17T04:55:40;100499.22;;;18.48
82297;BMP280;71899;51.992;8.648;2023-08-17T04:58:05;100493.28;;;18.56
82297;BMP280;71899;51.992;8.648;2023-08-17T05:00:30;100499.94;;;18.31
82297;BMP280;71899;51.992;8.648;2023-08-17T05:02:56;100502.41;;;18.23
82297;BMP280;71899;51.992;8.648;2023-08-17T05:05:24;100498.13;;;18.41
82297;BMP280;71899;51.992;8.648;2023-08-17T05:07:52;100499.97;;;18.41
82297;BMP280;71899;51.992;8.648;2023-08-17T05:10:18;100506.13;;;18.51
82297;BMP280;71899;51.992;8.648;2023-08-17T05:12:43;100502.78;;;18.58
82297;BMP280;71899;51.992;8.648;2023-08-17T05:15:09;100497.81;;;19.02
82297;BMP280;71899;51.992;8.648;2023-08-17T05:17:34;100500.28;;;19.22
82297;BMP280;71899;51.992;8.648;2023-08-17T05:20:00;100499.19;;;19.15
82297;BMP280;71899;51.992;8.648;2023-08-17T05:22:27;100503.13;;;19.11
82297;BMP280;71899;51.992;8.648;2023-08-17T05:24:52;100506.44;;;19.13
82297;BMP280;71899;51.992;8.648;2023-08-17T05:27:18;100507.88;;;19.08
82297;BMP280;71899;51.992;8.648;2023-08-17T05:29:43;100523.75;;;19.08
82297;BMP280;71899;51.992;8.648;2023-08-17T05:32:09;100514.03;;;18.89
82297;BMP280;71899;51.992;8.648;2023-08-17T05:34:35;100522.13;;;18.68
82297;BMP280;71899;51.992;8.648;2023-08-17T05:37:01;100518.34;;;18.90
82297;BMP280;71899;51.992;8.648;2023-08-17T05:39:28;100525.19;;;18.93
82297;BMP280;71899;51.992;8.648;2023-08-17T05:41:53;100532.84;;;18.76
82297;BMP280;71899;51.992;8.648;2023-08-17T05:44:19;100528.38;;;18.77
82297;BMP280;71899;51.992;8.648;2023-08-17T05:46:45;100528.53;;;18.56
82297;BMP280;71899;51.992;8.648;2023-08-17T05:49:10;100533.97;;;18.74
82297;BMP280;71899;51.992;8.648;2023-08-17T05:51:35;100536.00;;;19.09
82297;BMP280;71899;51.992;8.648;2023-08-17T05:54:01;100529.00;;;19.37
82297;BMP280;71899;51.992;8.648;2023-08-17T05:56:26;100533.94;;;19.03
82297;BMP280;71899;51.992;8.648;2023-08-17T05:58:53;100525.69;;;19.06
82297;BMP280;71899;51.992;8.648;2023-08-17T06:01:18;100521.09;;;19.17
82297;BMP280;71899;51.992;8.648;2023-08-17T06:03:43;100528.25;;;18.88
82297;BMP280;71899;51.992;8.648;2023-08-17T06:06:09;100526.69;;;18.95
82297;BMP280;71899;51.992;8.648;2023-08-17T06:08:34;100518.00;;;19.12
82297;BMP280;71899;51.992;8.648;2023-08-17T06:11:00;100523.53;;;19.38
82297;BMP280;71899;51.992;8.648;2023-08-17T06:13:25;100527.84;;;19.39
82297;BMP280;71899;51.992;8.648;2023-08-17T06:15:51;100524.03;;;19.61
82297;BMP280;71899;51.992;8.648;2023-08-17T06:18:16;100521.22;;;19.62
82297;BMP280;71899;51.992;8.648;2023-08-17T06:20:42;100522.97;;;19.44
82297;BMP280;71899;51.992;8.648;2023-08-17T06:23:07;100526.19;;;19.38
82297;BMP280;71899;51.992;8.648;2023-08-17T06:25:32;100520.63;;;19.41
82297;BMP280;71899;51.992;8.648;2023-08-17T06:27:59;100514.94;;;19.63
82297;BMP280;71899;51.992;8.648;2023-08-17T06:30:24;100514.47;;;19.77
82297;BMP280;71899;51.992;8.648;2023-08-17T06:32:50;100511.31;;;19.92
82297;BMP280;71899;51.992;8.648;2023-08-17T06:35:16;100510.50;;;20.09
82297;BMP280;71899;51.992;8.648;2023-08-17T06:37:41;100518.41;;;20.01
82297;BMP280;71899;51.992;8.648;2023-08-17T06:40:07;100515.34;;;19.68
82297;BMP280;71899;51.992;8.648;2023-08-17T06:42:34;100518.31;;;19.56
82297;BMP280;71899;51.992;8.648;2023-08-17T06:44:59;100517.66;;;19.54
82297;BMP280;71899;51.992;8.648;2023-08-17T06:47:25;100521.38;;;20.15
82297;BMP280;71899;51.992;8.648;2023-08-17T06:49:50;100524.16;;;20.14
82297;BMP280;71899;51.992;8.648;2023-08-17T06:52:15;100522.84;;;20.27
82297;BMP280;71899;51.992;8.648;2023-08-17T06:54:41;100528.78;;;20.57
82297;BMP280;71899;51.992;8.648;2023-08-17T06:57:06;100526.66;;;20.60
82297;BMP280;71899;51.992;8.648;2023-08-17T06:59:31;100530.66;;;20.82
82297;BMP280;71899;51.992;8.648;2023-08-17T07:01:58;100536.44;;;20.77
82297;BMP280;71899;51.992;8.648;2023-08-17T07:04:24;100535.53;;;20.87
82297;BMP280;71899;51.992;8.648;2023-08-17T07:06:49;100532.94;;;20.77
82297;BMP280;71899;51.992;8.648;2023-08-17T07:09:14;100528.47;;;20.77
82297;BMP280;71899;51.992;8.648;2023-08-17T07:11:40;100529.75;;;20.73
82297;BMP280;71899;51.992;8.648;2023-08-17T07:14:05;100535.56;;;20.95
82297;BMP280;71899;51.992;8.648;2023-08-17T07:16:34;100533.59;;;21.14
82297;BMP280;71899;51.992;8.648;2023-08-17T07:18:59;100531.47;;;21.00
82297;BMP280;71899;51.992;8.648;2023-08-17T07:21:25;100527.56;;;20.87
82297;BMP280;71899;51.992;8.648;2023-08-17T07:23:53;100539.09;;;19.97
82297;BMP280;71899;51.992;8.648;2023-08-17T07:26:19;100539.03;;;20.07
82297;BMP280;71899;51.992;8.648;2023-08-17T07:28:44;100531.56;;;20.38
82297;BMP280;71899;51.992;8.648;2023-08-17T07:31:10;100531.28;;;20.13
82297;BMP280;71899;51.992;8.648;2023-08-17T07:33:36;100539.28;;;19.86
82297;BMP280;71899;51.992;8.648;2023-08-17T07:36:02;100539.59;;;19.83
82297;BMP280;71899;51.992;8.648;2023-08-17T07:38:27;100539.44;;;20.12
82297;BMP280;71899;51.992;8.648;2023-08-17T07:40:52;100534.97;;;20.30
82297;BMP280;71899;51.992;8.648;2023-08-17T07:43:17;100535.06;;;20.38
82297;BMP280;71899;51.992;8.648;2023-08-17T07:45:43;100537.81;;;20.46
82297;BMP280;71899;51.992;8.648;2023-08-17T07:48:08;100533.44;;;20.98
82297;BMP280;71899;51.992;8.648;2023-08-17T07:50:33;100539.16;;;20.86
82297;BMP280;71899;51.992;8.648;2023-08-17T07:52:59;100541.34;;;21.34
82297;BMP280;71899;51.992;8.648;2023-08-17T07:55:26;100541.34;;;21.08
82297;BMP280;71899;51.992;8.648;2023-08-17T07:57:51;100535.81;;;21.53
82297;BMP280;71899;51.992;8.648;2023-08-17T08:00:19;100535.63;;;21.88
82297;BMP280;71899;51.992;8.648;2023-08-17T08:02:46;100550.00;;;21.95
82297;BMP280;71899;51.992;8.648;2023-08-17T08:05:11;100544.94;;;21.84
82297;BMP280;71899;51.992;8.648;2023-08-17T08:07:39;100543.63;;;22.22
82297;BMP280;71899;51.992;8.648;2023-08-17T08:10:05;100544.63;;;22.29
82297;BMP280;71899;51.992;8.648;2023-08-17T08:12:30;100543.78;;;22.20
82297;BMP280;71899;51.992;8.648;2023-08-17T08:14:55;100549.28;;;22.27
82297;BMP280;71899;51.992;8.648;2023-08-17T08:17:20;100552.50;;;22.47
82297;BMP280;71899;51.992;8.648;2023-08-17T08:19:49;100546.28;;;22.22
82297;BMP280;71899;51.992;8.648;2023-08-17T08:22:16;100554.13;;;21.90
82297;BMP280;71899;51.992;8.648;2023-08-17T08:24:41;100550.91;;;22.20
82297;BMP280;71899;51.992;8.648;2023-08-17T08:27:06;100549.44;;;22.34
82297;BMP280;71899;51.992;8.648;2023-08-17T08:29:32;100551.97;;;22.35
82297;BMP280;71899;51.992;8.648;2023-08-17T08:31:57;100546.16;;;22.48
82297;BMP280;71899;51.992;8.648;2023-08-17T08:34:31;100559.69;;;22.70
82297;BMP280;71899;51.992;8.648;2023-08-17T08:36:56;100547.63;;;22.34
82297;BMP280;71899;51.992;8.648;2023-08-17T08:39:21;100554.97;;;22.32
82297;BMP280;71899;51.992;8.648;2023-08-17T08:41:47;100555.44;;;22.28
82297;BMP280;71899;51.992;8.648;2023-08-17T08:44:12;100550.09;;;22.11
82297;BMP280;71899;51.992;8.648;2023-08-17T08:46:40;100551.41;;;22.07
82297;BMP280;71899;51.992;8.648;2023-08-17T08:49:12;100551.34;;;21.99
82297;BMP280;71899;51.992;8.648;2023-08-17T08:51:44;100552.34;;;21.90
82297;BMP280;71899;51.992;8.648;2023-08-17T08:54:20;100547.97;;;21.89
82297;BMP280;71899;51.992;8.648;2023-08-17T08:56:46;100555.78;;;22.33
82297;BMP280;71899;51.992;8.648;2023-08-17T08:59:12;100549.88;;;22.71
82297;BMP280;71899;51.992;8.648;2023-08-17T09:01:38;100541.22;;;22.03
82297;BMP280;71899;51.992;8.648;2023-08-17T09:04:04;100538.66;;;22.43
82297;BMP280;71899;51.992;8.648;2023-08-17T09:06:30;100529.34;;;22.63
82297;BMP280;71899;51.992;8.648;2023-08-17T09:09:00;100538.22;;;22.80
82297;BMP280;71899;51.992;8.648;2023-08-17T09:11:26;100539.38;;;22.94
82297;BMP280;71899;51.992;8.648;2023-08-17T09:13:52;100535.72;;;22.79
82297;BMP280;71899;51.992;8.648;2023-08-17T09:16:17;100533.50;;;22.50
82297;BMP280;71899;51.992;8.648;2023-08-17T09:18:43;100536.34;;;22.56
82297;BMP280;71899;51.992;8.648;2023-08-17T09:21:19;100531.72;;;22.75
82297;BMP280;71899;51.992;8.648;2023-08-17T09:23:50;100530.44;;;22.20
82297;BMP280;71899;51.992;8.648;2023-08-17T09:26:20;100530.22;;;21.64
82297;BMP280;71899;51.992;8.648;2023-08-17T09:28:47;100527.09;;;22.10
82297;BMP280;71899;51.992;8.648;2023-08-17T09:31:12;100530.16;;;22.32
82297;BMP280;71899;51.992;8.648;2023-08-17T09:33:38;100525.84;;;22.63
82297;BMP280;71899;51.992;8.648;2023-08-17T09:36:03;100528.19;;;22.58
82297;BMP280;71899;51.992;8.648;2023-08-17T09:38:29;100532.81;;;22.48
82297;BMP280;71899;51.992;8.648;2023-08-17T09:40:57;100527.06;;;22.85
82297;BMP280;71899;51.992;8.648;2023-08-17T09:46:21;100528.03;;;23.08
82297;BMP280;71899;51.992;8.648;2023-08-17T09:48:47;100524.00;;;23.36
82297;BMP280;71899;51.992;8.648;2023-08-17T09:51:16;100518.09;;;23.65
82297;BMP280;71899;51.992;8.648;2023-08-17T09:53:43;100526.53;;;23.21
82297;BMP280;71899;51.992;8.648;2023-08-17T09:56:11;100523.31;;;23.34
82297;BMP280;71899;51.992;8.648;2023-08-17T09:58:41;100519.63;;;23.51
82297;BMP280;71899;51.992;8.648;2023-08-17T10:01:08;100522.72;;;22.76
82297;BMP280;71899;51.992;8.648;2023-08-17T10:03:34;100522.88;;;23.14
82297;BMP280;71899;51.992;8.648;2023-08-17T10:06:04;100519.56;;;22.96
82297;BMP280;71899;51.992;8.648;2023-08-17T10:08:32;100517.13;;;22.20
82297;BMP280;71899;51.992;8.648;2023-08-17T10:10:59;100527.41;;;21.99
82297;BMP280;71899;51.992;8.648;2023-08-17T10:13:31;100523.50;;;22.52
82297;BMP280;71899;51.992;8.648;2023-08-17T10:16:06;100529.19;;;23.05
82297;BMP280;71899;51.992;8.648;2023-08-17T10:21:23;100528.69;;;23.02
82297;BMP280;71899;51.992;8.648;2023-08-17T10:23:49;100532.88;;;22.80
82297;BMP280;71899;51.992;8.648;2023-08-17T10:26:15;100527.47;;;22.32
82297;BMP280;71899;51.992;8.648;2023-08-17T10:28:41;100523.13;;;22.22
82297;BMP280;71899;51.992;8.648;2023-08-17T10:31:09;100518.16;;;22.28
82297;BMP280;71899;51.992;8.648;2023-08-17T10:33:34;100525.75;;;21.64
82297;BMP280;71899;51.992;8.648;2023-08-17T10:36:00;100535.16;;;21.51
82297;BMP280;71899;51.992;8.648;2023-08-17T10:38:26;100535.75;;;21.37
82297;BMP280;71899;51.992;8.648;2023-08-17T10:41:11;100534.06;;;20.92
82297;BMP280;71899;51.992;8.648;2023-08-17T10:43:58;100540.69;;;21.32
82297;BMP280;71899;51.992;8.648;2023-08-17T10:46:37;100538.50;;;21.27
82297;BMP280;71899;51.992;8.648;2023-08-17T10:49:05;100545.03;;;21.41
82297;BMP280;71899;51.992;8.648;2023-08-17T10:51:31;100545.56;;;21.44
82297;BMP280;71899;51.992;8.648;2023-08-17T10:53:59;100548.63;;;21.06
82297;BMP280;71899;51.992;8.648;2023-08-17T10:56:27;100544.00;;;21.34
82297;BMP280;71899;51.992;8.648;2023-08-17T10:58:53;100552.16;;;21.32
82297;BMP280;71899;51.992;8.648;2023-08-17T11:01:31;100559.56;;;21.20
82297;BMP280;71899;51.992;8.648;2023-08-17T11:04:15;100555.41;;;21.52
82297;BMP280;71899;51.992;8.648;2023-08-17T11:06:43;100559.50;;;21.38
82297;BMP280;71899;51.992;8.648;2023-08-17T11:09:08;100563.19;;;21.02
82297;BMP280;71899;51.992;8.648;2023-08-17T11:11:34;100565.97;;;21.36
82297;BMP280;71899;51.992;8.648;2023-08-17T11:13:59;100567.47;;;20.95
82297;BMP280;71899;51.992;8.648;2023-08-17T11:16:24;100573.09;;;20.74
82297;BMP280;71899;51.992;8.648;2023-08-17T11:18:50;100571.38;;;20.65
82297;BMP280;71899;51.992;8.648;2023-08-17T11:21:16;100563.59;;;21.07
82297;BMP280;71899;51.992;8.648;2023-08-17T11:23:42;100575.50;;;21.03
82297;BMP280;71899;51.992;8.648;2023-08-17T11:26:08;100575.06;;;21.07
82297;BMP280;71899;51.992;8.648;2023-08-17T11:28:34;100570.34;;;21.01
82297;BMP280;71899;51.992;8.648;2023-08-17T11:31:05;100572.94;;;20.93
82297;BMP280;71899;51.992;8.648;2023-08-17T11:33:32;100568.00;;;21.16
82297;BMP280;71899;51.992;8.648;2023-08-17T11:36:02;100564.94;;;21.29
82297;BMP280;71899;51.992;8.648;2023-08-17T11:38:38;100566.56;;;21.47
82297;BMP280;71899;51.992;8.648;2023-08-17T11:41:04;100569.50;;;21.70
82297;BMP280;71899;51.992;8.648;2023-08-17T11:43:30;100568.78;;;21.60
82297;BMP280;71899;51.992;8.648;2023-08-17T11:45:56;100565.84;;;21.71
82297;BMP280;71899;51.992;8.648;2023-08-17T11:48:23;100557.84;;;21.97
82297;BMP280;71899;51.992;8.648;2023-08-17T11:50:48;100571.50;;;21.68
82297;BMP280;71899;51.992;8.648;2023-08-17T11:53:14;100568.19;;;21.74
82297;BMP280;71899;51.992;8.648;2023-08-17T11:55:39;100565.81;;;21.63
82297;BMP280;71899;51.992;8.648;2023-08-17T11:58:05;100561.56;;;21.18
82297;BMP280;71899;51.992;8.648;2023-08-17T12:00:35;100560.50;;;21.37
82297;BMP280;71899;51.992;8.648;2023-08-17T12:03:02;100564.94;;;21.29
82297;BMP280;71899;51.992;8.648;2023-08-17T12:05:31;100559.75;;;21.27
82297;BMP280;71899;51.992;8.648;2023-08-17T12:07:56;100557.69;;;21.39
82297;BMP280;71899;51.992;8.648;2023-08-17T12:10:22;100552.25;;;21.22
82297;BMP280;71899;51.992;8.648;2023-08-17T12:12:50;100553.84;;;21.15
82297;BMP280;71899;51.992;8.648;2023-08-17T12:15:17;100567.69;;;21.45
82297;BMP280;71899;51.992;8.648;2023-08-17T12:17:46;100567.28;;;21.91
82297;BMP280;71899;51.992;8.648;2023-08-17T12:20:19;100564.00;;;21.97
82297;BMP280;71899;51.992;8.648;2023-08-17T12:22:46;100555.41;;;21.77
82297;BMP280;71899;51.992;8.648;2023-08-17T12:25:12;100566.50;;;21.65
82297;BMP280;71899;51.992;8.648;2023-08-17T12:27:37;100561.28;;;21.89
82297;BMP280;71899;51.992;8.648;2023-08-17T12:30:03;100554.91;;;22.16
82297;BMP280;71899;51.992;8.648;2023-08-17T12:32:28;100558.31;;;21.92
82297;BMP280;71899;51.992;8.648;2023-08-17T12:34:54;100556.69;;;21.73
82297;BMP280;71899;51.992;8.648;2023-08-17T12:37:20;100547.97;;;21.89
82297;BMP280;71899;51.992;8.648;2023-08-17T12:39:48;100547.91;;;22.07
82297;BMP280;71899;51.992;8.648;2023-08-17T12:42:14;100556.72;;;22.07
82297;BMP280;71899;51.992;8.648;2023-08-17T12:44:40;100552.72;;;22.03
82297;BMP280;71899;51.992;8.648;2023-08-17T12:47:05;100551.53;;;22.06
82297;BMP280;71899;51.992;8.648;2023-08-17T12:49:31;100548.09;;;22.21
82297;BMP280;71899;51.992;8.648;2023-08-17T12:51:56;100554.16;;;21.98
82297;BMP280;71899;51.992;8.648;2023-08-17T12:54:21;100564.03;;;21.80
82297;BMP280;71899;51.992;8.648;2023-08-17T12:56:47;100560.00;;;21.67
82297;BMP280;71899;51.992;8.648;2023-08-17T12:59:12;100560.75;;;21.52
82297;BMP280;71899;51.992;8.648;2023-08-17T13:01:38;100554.72;;;21.42
82297;BMP280;71899;51.992;8.648;2023-08-17T13:04:03;100565.91;;;21.53
82297;BMP280;71899;51.992;8.648;2023-08-17T13:06:29;100554.41;;;21.79
82297;BMP280;71899;51.992;8.648;2023-08-17T13:08:54;100562.22;;;21.46
82297;BMP280;71899;51.992;8.648;2023-08-17T13:11:20;100560.47;;;21.63
82297;BMP280;71899;51.992;8.648;2023-08-17T13:13:45;100565.22;;;21.51
82297;BMP280;71899;51.992;8.648;2023-08-17T13:16:10;100557.69;;;21.39
82297;BMP280;71899;51.992;8.648;2023-08-17T13:18:38;100563.72;;;21.23
82297;BMP280;71899;51.992;8.648;2023-08-17T13:21:04;100558.97;;;21.35
82297;BMP280;71899;51.992;8.648;2023-08-17T13:23:29;100558.16;;;21.34
82297;BMP280;71899;51.992;8.648;2023-08-17T13:25:55;100570.50;;;21.00
82297;BMP280;71899;51.992;8.648;2023-08-17T13:28:20;100565.66;;;21.13
82297;BMP280;71899;51.992;8.648;2023-08-17T13:30:45;100564.16;;;21.10
82297;BMP280;71899;51.992;8.648;2023-08-17T13:33:11;100561.47;;;21.10
82297;BMP280;71899;51.992;8.648;2023-08-17T13:35:37;100566.81;;;21.36
82297;BMP280;71899;51.992;8.648;2023-08-17T13:38:03;100560.75;;;21.52
82297;BMP280;71899;51.992;8.648;2023-08-17T13:40:29;100553.97;;;21.57
82297;BMP280;71899;51.992;8.648;2023-08-17T13:42:55;100554.25;;;21.20
82297;BMP280;71899;51.992;8.648;2023-08-17T13:45:20;100561.31;;;21.12
82297;BMP280;71899;51.992;8.648;2023-08-17T13:47:45;100564.91;;;20.85
82297;BMP280;71899;51.992;8.648;2023-08-17T13:50:11;100560.84;;;20.99
82297;BMP280;71899;51.992;8.648;2023-08-17T13:52:36;100568.72;;;20.83
82297;BMP280;71899;51.992;8.648;2023-08-17T13:55:02;100569.44;;;20.93
82297;BMP280;71899;51.992;8.648;2023-08-17T13:57:27;100571.06;;;20.86
82297;BMP280;71899;51.992;8.648;2023-08-17T13:59:52;100574.69;;;20.85
82297;BMP280;71899;51.992;8.648;2023-08-17T14:02:18;100568.22;;;20.87